sensor_id;sensor_type;location;lat;lon;timestamp;noise_LAeq;noise_LA_min;noise_LA_max;noise_LA01;noise_LA95
47923;Laerm;33688;44.354;9.228;2023-07-08T00:00:51;35.03;5.00;39.08;;
47923;Laerm;33688;44.354;9.228;2023-07-08T00:03:18;35.02;5.00;38.81;;
47923;Laerm;33688;44.354;9.228;2023-07-08T00:05:47;35.02;23.90;38.67;;
47923;Laerm;33688;44.354;9.228;2023-07-08T00:10:40;35.07;5.00;38.67;;
47923;Laerm;33688;44.354;9.228;2023-07-08T00:13:08;35.06;23.90;38.67;;
47923;Laerm;33688;44.354;9.228;2023-07-08T00:15:35;35.00;5.00;38.67;;
47923;Laerm;33688;44.354;9.228;2023-07-08T00:18:13;35.02;23.90;38.52;;
47923;Laerm;33688;44.354;9.228;2023-07-08T00:20:46;35.03;23.90;38.81;;
47923;Laerm;33688;44.354;9.228;2023-07-08T00:23:12;35.07;5.00;38.81;;
47923;Laerm;33688;44.354;9.228;2023-07-08T00:25:41;34.98;5.00;39.08;;
47923;Laerm;33688;44.354;9.228;2023-07-08T00:28:17;35.00;5.00;39.08;;
47923;Laerm;33688;44.354;9.228;2023-07-08T00:30:44;35.03;5.00;38.81;;
47923;Laerm;33688;44.354;9.228;2023-07-08T00:33:11;35.06;5.00;38.60;;
47923;Laerm;33688;44.354;9.228;2023-07-08T00:35:41;35.03;23.90;38.81;;
47923;Laerm;33688;44.354;9.228;2023-07-08T00:38:21;35.03;5.00;39.46;;
47923;Laerm;33688;44.354;9.228;2023-07-08T00:41:38;35.02;23.90;38.81;;
47923;Laerm;33688;44.354;9.228;2023-07-08T00:44:10;35.00;5.00;38.81;;
47923;Laerm;33688;44.354;9.228;2023-07-08T00:46:52;34.99;23.90;38.52;;
47923;Laerm;33688;44.354;9.228;2023-07-08T00:49:28;35.03;5.00;38.81;;
47923;Laerm;33688;44.354;9.228;2023-07-08T00:52:26;35.04;5.00;38.81;;
47923;Laerm;33688;44.354;9.228;2023-07-08T00:54:56;35.00;23.90;38.95;;
47923;Laerm;33688;44.354;9.228;2023-07-08T00:57:27;35.02;5.00;38.67;;
47923;Laerm;33688;44.354;9.228;2023-07-08T00:59:55;35.02;5.00;38.81;;
47923;Laerm;33688;44.354;9.228;2023-07-08T01:05:06;35.05;5.00;38.60;;
47923;Laerm;33688;44.354;9.228;2023-07-08T01:10:42;35.01;23.90;38.67;;
47923;Laerm;33688;44.354;9.228;2023-07-08T01:13:11;35.07;5.00;38.52;;
47923;Laerm;33688;44.354;9.228;2023-07-08T01:15:56;35.02;23.90;39.08;;
47923;Laerm;33688;44.354;9.228;2023-07-08T01:20:51;34.99;5.00;39.08;;
47923;Laerm;33688;44.354;9.228;2023-07-08T01:23:22;35.02;5.00;39.08;;
47923;Laerm;33688;44.354;9.228;2023-07-08T01:25:48;35.04;5.00;38.52;;
47923;Laerm;33688;44.354;9.228;2023-07-08T01:28:14;35.04;23.90;38.81;;
47923;Laerm;33688;44.354;9.228;2023-07-08T01:30:42;35.02;23.90;38.81;;
47923;Laerm;33688;44.354;9.228;2023-07-08T01:33:17;35.02;23.55;38.81;;
47923;Laerm;33688;44.354;9.228;2023-07-08T01:35:46;35.03;23.90;38.95;;
47923;Laerm;33688;44.354;9.228;2023-07-08T01:38:19;35.06;23.90;38.81;;
47923;Laerm;33688;44.354;9.228;2023-07-08T01:40:53;35.02;5.00;38.52;;
47923;Laerm;33688;44.354;9.228;2023-07-08T01:43:20;35.03;23.90;38.95;;
47923;Laerm;33688;44.354;9.228;2023-07-08T01:45:48;35.05;5.00;38.67;;
47923;Laerm;33688;44.354;9.228;2023-07-08T01:48:18;35.05;5.00;38.81;;
47923;Laerm;33688;44.354;9.228;2023-07-08T01:50:54;35.05;5.00;38.95;;
47923;Laerm;33688;44.354;9.228;2023-07-08T01:53:33;35.03;5.00;38.67;;
47923;Laerm;33688;44.354;9.228;2023-07-08T01:56:00;35.06;23.55;38.47;;
47923;Laerm;33688;44.354;9.228;2023-07-08T01:58:27;35.04;5.00;38.95;;
47923;Laerm;33688;44.354;9.228;2023-07-08T02:00:57;35.01;23.55;38.81;;
47923;Laerm;33688;44.354;9.228;2023-07-08T02:03:23;35.04;23.90;38.74;;
47923;Laerm;33688;44.354;9.228;2023-07-08T02:05:49;35.00;23.90;38.81;;
47923;Laerm;33688;44.354;9.228;2023-07-08T02:08:15;35.03;5.00;39.21;;
47923;Laerm;33688;44.354;9.228;2023-07-08T02:10:42;34.96;23.55;38.52;;
47923;Laerm;33688;44.354;9.228;2023-07-08T02:13:08;35.03;5.00;38.95;;
47923;Laerm;33688;44.354;9.228;2023-07-08T02:15:35;35.03;5.00;38.95;;
47923;Laerm;33688;44.354;9.228;2023-07-08T02:18:01;35.05;23.90;38.52;;
47923;Laerm;33688;44.354;9.228;2023-07-08T02:20:29;35.02;23.90;39.08;;
47923;Laerm;33688;44.354;9.228;2023-07-08T02:22:55;35.03;5.00;38.32;;
47923;Laerm;33688;44.354;9.228;2023-07-08T02:25:22;35.04;5.00;38.52;;
47923;Laerm;33688;44.354;9.228;2023-07-08T02:27:48;35.02;23.90;39.34;;
47923;Laerm;33688;44.354;9.228;2023-07-08T02:30:14;34.99;5.00;39.21;;
47923;Laerm;33688;44.354;9.228;2023-07-08T02:32:42;35.06;5.00;38.37;;
47923;Laerm;33688;44.354;9.228;2023-07-08T02:35:15;35.04;5.00;38.81;;
47923;Laerm;33688;44.354;9.228;2023-07-08T02:37:42;35.00;5.00;38.81;;
47923;Laerm;33688;44.354;9.228;2023-07-08T02:40:09;35.02;23.90;38.67;;
47923;Laerm;33688;44.354;9.228;2023-07-08T02:42:35;35.05;5.00;39.70;;
47923;Laerm;33688;44.354;9.228;2023-07-08T02:45:02;35.05;5.00;38.81;;
47923;Laerm;33688;44.354;9.228;2023-07-08T02:47:29;35.00;5.00;38.95;;
47923;Laerm;33688;44.354;9.228;2023-07-08T02:49:57;35.02;23.90;38.81;;
47923;Laerm;33688;44.354;9.228;2023-07-08T02:52:24;35.02;23.90;39.21;;
47923;Laerm;33688;44.354;9.228;2023-07-08T02:54:50;35.05;5.00;38.52;;
47923;Laerm;33688;44.354;9.228;2023-07-08T02:57:16;35.00;5.00;38.81;;
47923;Laerm;33688;44.354;9.228;2023-07-08T02:59:43;35.00;5.00;38.81;;
47923;Laerm;33688;44.354;9.228;2023-07-08T03:02:09;35.07;23.55;38.95;;
47923;Laerm;33688;44.354;9.228;2023-07-08T03:07:08;35.07;5.00;38.67;;
47923;Laerm;33688;44.354;9.228;2023-07-08T03:09:38;35.01;5.00;38.95;;
47923;Laerm;33688;44.354;9.228;2023-07-08T03:12:07;35.00;23.55;38.99;;
47923;Laerm;33688;44.354;9.228;2023-07-08T03:14:34;35.03;23.90;38.81;;
47923;Laerm;33688;44.354;9.228;2023-07-08T03:17:00;35.06;5.00;38.99;;
47923;Laerm;33688;44.354;9.228;2023-07-08T03:19:26;35.00;5.00;38.87;;
47923;Laerm;33688;44.354;9.228;2023-07-08T03:21:53;35.06;5.00;38.81;;
47923;Laerm;33688;44.354;9.228;2023-07-08T03:24:20;35.00;5.00;38.67;;
47923;Laerm;33688;44.354;9.228;2023-07-08T03:26:47;35.01;5.00;38.81;;
47923;Laerm;33688;44.354;9.228;2023-07-08T03:29:18;35.02;5.00;39.08;;
47923;Laerm;33688;44.354;9.228;2023-07-08T03:31:47;35.04;23.90;39.21;;
47923;Laerm;33688;44.354;9.228;2023-07-08T03:34:16;35.03;23.90;38.81;;
47923;Laerm;33688;44.354;9.228;2023-07-08T03:36:50;35.04;23.90;38.81;;
47923;Laerm;33688;44.354;9.228;2023-07-08T03:39:23;35.02;23.90;38.95;;
47923;Laerm;33688;44.354;9.228;2023-07-08T03:41:50;35.05;5.00;38.81;;
47923;Laerm;33688;44.354;9.228;2023-07-08T03:44:18;34.98;5.00;38.52;;
47923;Laerm;33688;44.354;9.228;2023-07-08T03:49:18;35.01;5.00;38.81;;
47923;Laerm;33688;44.354;9.228;2023-07-08T03:51:48;35.00;23.90;39.08;;
47923;Laerm;33688;44.354;9.228;2023-07-08T03:54:18;35.02;23.90;38.52;;
47923;Laerm;33688;44.354;9.228;2023-07-08T03:56:47;35.02;5.00;39.21;;
47923;Laerm;33688;44.354;9.228;2023-07-08T03:59:15;35.03;23.90;39.21;;
47923;Laerm;33688;44.354;9.228;2023-07-08T04:01:41;35.05;23.90;38.81;;
47923;Laerm;33688;44.354;9.228;2023-07-08T04:04:13;35.01;23.90;38.81;;
47923;Laerm;33688;44.354;9.228;2023-07-08T04:06:42;35.03;23.90;38.95;;
47923;Laerm;33688;44.354;9.228;2023-07-08T04:09:09;35.02;5.00;38.67;;
47923;Laerm;33688;44.354;9.228;2023-07-08T04:11:37;35.01;5.00;39.08;;
47923;Laerm;33688;44.354;9.228;2023-07-08T04:14:03;35.04;23.55;39.21;;
47923;Laerm;33688;44.354;9.228;2023-07-08T04:19:15;35.03;23.90;38.37;;
47923;Laerm;33688;44.354;9.228;2023-07-08T04:21:42;35.04;5.00;38.67;;
47923;Laerm;33688;44.354;9.228;2023-07-08T04:24:13;34.98;23.90;38.67;;
47923;Laerm;33688;44.354;9.228;2023-07-08T04:26:40;35.02;23.90;38.95;;
47923;Laerm;33688;44.354;9.228;2023-07-08T04:29:17;35.05;5.00;39.08;;
47923;Laerm;33688;44.354;9.228;2023-07-08T04:31:45;35.03;5.00;38.81;;
47923;Laerm;33688;44.354;9.228;2023-07-08T04:34:10;35.04;5.00;39.34;;
47923;Laerm;33688;44.354;9.228;2023-07-08T04:36:37;35.02;23.90;38.95;;
47923;Laerm;33688;44.354;9.228;2023-07-08T04:39:05;35.01;5.00;38.95;;
47923;Laerm;33688;44.354;9.228;2023-07-08T04:41:31;34.98;23.90;38.67;;
47923;Laerm;33688;44.354;9.228;2023-07-08T04:43:57;35.03;5.00;39.08;;
47923;Laerm;33688;44.354;9.228;2023-07-08T04:46:48;35.05;5.00;38.52;;
47923;Laerm;33688;44.354;9.228;2023-07-08T04:49:16;35.04;23.90;39.11;;
47923;Laerm;33688;44.354;9.228;2023-07-08T04:51:43;35.00;5.00;38.81;;
47923;Laerm;33688;44.354;9.228;2023-07-08T04:54:10;35.02;5.00;38.95;;
47923;Laerm;33688;44.354;9.228;2023-07-08T04:56:40;35.04;5.00;38.52;;
47923;Laerm;33688;44.354;9.228;2023-07-08T04:59:12;35.02;5.00;39.46;;
47923;Laerm;33688;44.354;9.228;2023-07-08T05:01:40;35.00;23.90;38.67;;
47923;Laerm;33688;44.354;9.228;2023-07-08T05:04:07;35.02;23.90;38.67;;
47923;Laerm;33688;44.354;9.228;2023-07-08T05:06:34;35.01;23.90;38.81;;
47923;Laerm;33688;44.354;9.228;2023-07-08T05:09:01;35.01;5.00;39.08;;
47923;Laerm;33688;44.354;9.228;2023-07-08T05:11:28;35.01;23.90;38.95;;
47923;Laerm;33688;44.354;9.228;2023-07-08T05:13:55;35.03;5.00;39.21;;
47923;Laerm;33688;44.354;9.228;2023-07-08T05:16:21;35.06;5.00;39.11;;
47923;Laerm;33688;44.354;9.228;2023-07-08T05:18:47;35.03;5.00;38.52;;
47923;Laerm;33688;44.354;9.228;2023-07-08T05:21:14;34.98;5.00;38.67;;
47923;Laerm;33688;44.354;9.228;2023-07-08T05:23:40;35.02;5.00;38.60;;
47923;Laerm;33688;44.354;9.228;2023-07-08T05:26:07;35.00;5.00;38.95;;
47923;Laerm;33688;44.354;9.228;2023-07-08T05:28:34;35.04;26.91;38.95;;
47923;Laerm;33688;44.354;9.228;2023-07-08T05:31:00;34.99;5.00;38.95;;
47923;Laerm;33688;44.354;9.228;2023-07-08T05:33:28;35.04;23.90;38.52;;
47923;Laerm;33688;44.354;9.228;2023-07-08T05:35:54;35.01;5.00;38.74;;
47923;Laerm;33688;44.354;9.228;2023-07-08T05:38:21;35.02;5.00;38.67;;
47923;Laerm;33688;44.354;9.228;2023-07-08T05:40:51;35.02;5.00;38.81;;
47923;Laerm;33688;44.354;9.228;2023-07-08T05:43:19;35.01;5.00;39.34;;
47923;Laerm;33688;44.354;9.228;2023-07-08T05:45:46;35.04;5.00;38.67;;
47923;Laerm;33688;44.354;9.228;2023-07-08T05:48:11;35.04;23.90;39.08;;
47923;Laerm;33688;44.354;9.228;2023-07-08T05:50:39;35.02;23.90;39.08;;
47923;Laerm;33688;44.354;9.228;2023-07-08T05:53:08;35.00;5.00;38.99;;
47923;Laerm;33688;44.354;9.228;2023-07-08T05:55:35;35.00;5.00;38.67;;
47923;Laerm;33688;44.354;9.228;2023-07-08T05:58:01;35.03;5.00;38.52;;
47923;Laerm;33688;44.354;9.228;2023-07-08T06:00:27;34.98;5.00;38.81;;
47923;Laerm;33688;44.354;9.228;2023-07-08T06:02:54;35.02;5.00;39.08;;
47923;Laerm;33688;44.354;9.228;2023-07-08T06:05:21;35.00;5.00;38.81;;
47923;Laerm;33688;44.354;9.228;2023-07-08T06:07:47;35.05;5.00;38.52;;
47923;Laerm;33688;44.354;9.228;2023-07-08T06:10:13;34.99;23.90;38.52;;
47923;Laerm;33688;44.354;9.228;2023-07-08T06:12:40;35.02;5.00;38.95;;
47923;Laerm;33688;44.354;9.228;2023-07-08T06:15:08;35.02;23.90;38.81;;
47923;Laerm;33688;44.354;9.228;2023-07-08T06:17:34;35.03;5.00;38.81;;
47923;Laerm;33688;44.354;9.228;2023-07-08T06:19:59;35.03;5.00;38.67;;
47923;Laerm;33688;44.354;9.228;2023-07-08T06:22:27;35.00;5.00;38.52;;
47923;Laerm;33688;44.354;9.228;2023-07-08T06:24:54;35.02;23.90;38.67;;
47923;Laerm;33688;44.354;9.228;2023-07-08T06:27:22;35.01;23.90;38.67;;
47923;Laerm;33688;44.354;9.228;2023-07-08T06:29:47;35.00;5.00;38.67;;
47923;Laerm;33688;44.354;9.228;2023-07-08T06:32:14;35.03;23.90;39.21;;
47923;Laerm;33688;44.354;9.228;2023-07-08T06:34:40;34.98;23.90;38.67;;
47923;Laerm;33688;44.354;9.228;2023-07-08T06:37:06;35.02;23.90;38.87;;
47923;Laerm;33688;44.354;9.228;2023-07-08T06:39:31;34.99;23.90;38.81;;
47923;Laerm;33688;44.354;9.228;2023-07-08T06:41:59;35.00;23.90;38.67;;
47923;Laerm;33688;44.354;9.228;2023-07-08T06:44:30;35.02;5.00;38.95;;
47923;Laerm;33688;44.354;9.228;2023-07-08T06:46:56;34.98;5.00;38.52;;
47923;Laerm;33688;44.354;9.228;2023-07-08T06:49:22;35.01;23.55;38.87;;
47923;Laerm;33688;44.354;9.228;2023-07-08T06:51:48;34.99;5.00;38.67;;
47923;Laerm;33688;44.354;9.228;2023-07-08T06:54:15;35.01;5.00;38.81;;
47923;Laerm;33688;44.354;9.228;2023-07-08T06:56:41;35.03;5.00;39.34;;
47923;Laerm;33688;44.354;9.228;2023-07-08T06:59:08;35.01;5.00;38.95;;
47923;Laerm;33688;44.354;9.228;2023-07-08T07:01:35;35.03;5.00;39.21;;
47923;Laerm;33688;44.354;9.228;2023-07-08T07:04:05;35.01;5.00;38.67;;
47923;Laerm;33688;44.354;9.228;2023-07-08T07:06:30;35.05;5.00;38.81;;
47923;Laerm;33688;44.354;9.228;2023-07-08T07:08:56;34.99;5.00;38.67;;
47923;Laerm;33688;44.354;9.228;2023-07-08T07:11:23;34.98;5.00;38.81;;
47923;Laerm;33688;44.354;9.228;2023-07-08T07:13:49;35.01;5.00;39.21;;
47923;Laerm;33688;44.354;9.228;2023-07-08T07:16:15;34.99;5.00;38.81;;
47923;Laerm;33688;44.354;9.228;2023-07-08T07:18:41;35.02;23.90;39.34;;
47923;Laerm;33688;44.354;9.228;2023-07-08T07:21:07;35.04;5.00;38.81;;
47923;Laerm;33688;44.354;9.228;2023-07-08T07:23:33;35.03;23.90;39.08;;
47923;Laerm;33688;44.354;9.228;2023-07-08T07:26:02;35.05;5.00;38.81;;
47923;Laerm;33688;44.354;9.228;2023-07-08T07:28:28;34.99;5.00;38.95;;
47923;Laerm;33688;44.354;9.228;2023-07-08T07:30:59;35.02;5.00;38.67;;
47923;Laerm;33688;44.354;9.228;2023-07-08T07:33:26;35.01;23.90;38.67;;
47923;Laerm;33688;44.354;9.228;2023-07-08T07:35:52;35.01;5.00;38.81;;
47923;Laerm;33688;44.354;9.228;2023-07-08T07:38:18;35.04;5.00;39.34;;
47923;Laerm;33688;44.354;9.228;2023-07-08T07:40:45;35.01;23.90;39.08;;
47923;Laerm;33688;44.354;9.228;2023-07-08T07:43:12;35.04;5.00;38.67;;
47923;Laerm;33688;44.354;9.228;2023-07-08T07:45:57;35.00;23.90;38.81;;
47923;Laerm;33688;44.354;9.228;2023-07-08T07:48:23;35.05;23.90;39.21;;
47923;Laerm;33688;44.354;9.228;2023-07-08T07:50:51;35.04;5.00;38.67;;
47923;Laerm;33688;44.354;9.228;2023-07-08T07:53:17;35.02;5.00;38.67;;
47923;Laerm;33688;44.354;9.228;2023-07-08T07:55:43;35.02;5.00;38.95;;
47923;Laerm;33688;44.354;9.228;2023-07-08T07:58:09;35.00;5.00;38.67;;
47923;Laerm;33688;44.354;9.228;2023-07-08T08:00:38;35.02;23.90;38.81;;
47923;Laerm;33688;44.354;9.228;2023-07-08T08:03:04;35.01;5.00;39.46;;
47923;Laerm;33688;44.354;9.228;2023-07-08T08:05:30;35.03;23.90;39.08;;
47923;Laerm;33688;44.354;9.228;2023-07-08T08:07:56;35.03;23.90;39.08;;
47923;Laerm;33688;44.354;9.228;2023-07-08T08:10:23;35.01;5.00;38.95;;
47923;Laerm;33688;44.354;9.228;2023-07-08T08:12:49;35.00;23.55;38.81;;
47923;Laerm;33688;44.354;9.228;2023-07-08T08:15:19;35.02;23.90;38.37;;
47923;Laerm;33688;44.354;9.228;2023-07-08T08:17:46;34.99;23.90;38.67;;
47923;Laerm;33688;44.354;9.228;2023-07-08T08:20:14;35.01;5.00;38.37;;
47923;Laerm;33688;44.354;9.228;2023-07-08T08:22:40;35.03;5.00;38.67;;
47923;Laerm;33688;44.354;9.228;2023-07-08T08:25:07;35.03;5.00;39.34;;
47923;Laerm;33688;44.354;9.228;2023-07-08T08:27:33;35.04;5.00;39.34;;
47923;Laerm;33688;44.354;9.228;2023-07-08T08:29:59;35.00;5.00;38.37;;
47923;Laerm;33688;44.354;9.228;2023-07-08T08:32:25;35.00;5.00;38.67;;
47923;Laerm;33688;44.354;9.228;2023-07-08T08:34:51;35.03;23.90;38.81;;
47923;Laerm;33688;44.354;9.228;2023-07-08T08:37:17;35.05;5.00;39.08;;
47923;Laerm;33688;44.354;9.228;2023-07-08T08:39:43;35.01;23.90;38.67;;
47923;Laerm;33688;44.354;9.228;2023-07-08T08:42:44;35.01;23.90;38.52;;
47923;Laerm;33688;44.354;9.228;2023-07-08T08:45:16;89.64;5.00;112.58;;
47923;Laerm;33688;44.354;9.228;2023-07-08T08:47:51;34.99;23.90;38.81;;
47923;Laerm;33688;44.354;9.228;2023-07-08T08:52:52;59.27;5.00;95.03;;
47923;Laerm;33688;44.354;9.228;2023-07-08T08:55:23;34.98;5.00;39.08;;
47923;Laerm;33688;44.354;9.228;2023-07-08T09:01:02;34.95;5.00;38.60;;
47923;Laerm;33688;44.354;9.228;2023-07-08T09:03:45;35.00;5.00;38.81;;
47923;Laerm;33688;44.354;9.228;2023-07-08T09:06:36;34.99;23.90;38.52;;
47923;Laerm;33688;44.354;9.228;2023-07-08T09:09:12;34.97;23.90;38.37;;
47923;Laerm;33688;44.354;9.228;2023-07-08T09:14:27;107.84;5.00;112.68;;
47923;Laerm;33688;44.354;9.228;2023-07-08T09:23:11;107.86;23.90;112.78;;
47923;Laerm;33688;44.354;9.228;2023-07-08T09:25:54;107.89;23.90;112.93;;
47923;Laerm;33688;44.354;9.228;2023-07-08T09:28:20;107.87;26.91;112.95;;
47923;Laerm;33688;44.354;9.228;2023-07-08T09:30:50;107.93;28.67;112.93;;
47923;Laerm;33688;44.354;9.228;2023-07-08T09:33:18;107.87;28.67;112.91;;
47923;Laerm;33688;44.354;9.228;2023-07-08T09:35:47;107.86;5.00;112.90;;
47923;Laerm;33688;44.354;9.228;2023-07-08T09:38:20;107.82;23.90;112.64;;
47923;Laerm;33688;44.354;9.228;2023-07-08T09:40:52;107.82;5.00;113.08;;
47923;Laerm;33688;44.354;9.228;2023-07-08T09:43:34;107.90;5.00;112.90;;
47923;Laerm;33688;44.354;9.228;2023-07-08T09:46:04;107.84;28.67;112.96;;
47923;Laerm;33688;44.354;9.228;2023-07-08T09:48:36;107.87;5.00;113.21;;
47923;Laerm;33688;44.354;9.228;2023-07-08T09:51:04;107.87;28.67;112.93;;
47923;Laerm;33688;44.354;9.228;2023-07-08T09:53:50;107.85;5.00;113.07;;
47923;Laerm;33688;44.354;9.228;2023-07-08T09:56:18;107.78;30.89;113.28;;
47923;Laerm;33688;44.354;9.228;2023-07-08T09:58:44;107.81;5.00;112.73;;
47923;Laerm;33688;44.354;9.228;2023-07-08T10:01:21;107.87;5.00;113.15;;
47923;Laerm;33688;44.354;9.228;2023-07-08T10:03:49;107.88;29.92;112.91;;
47923;Laerm;33688;44.354;9.228;2023-07-08T10:06:27;107.92;5.00;113.12;;
47923;Laerm;33688;44.354;9.228;2023-07-08T10:08:55;107.80;29.92;112.90;;
47923;Laerm;33688;44.354;9.228;2023-07-08T10:12:00;107.88;31.68;113.41;;
47923;Laerm;33688;44.354;9.228;2023-07-08T10:14:37;96.86;5.00;112.47;;
47923;Laerm;33688;44.354;9.228;2023-07-08T10:17:05;35.01;5.00;39.08;;
47923;Laerm;33688;44.354;9.228;2023-07-08T10:19:31;35.02;5.00;38.67;;
47923;Laerm;33688;44.354;9.228;2023-07-08T10:37:29;34.97;5.00;38.52;;
47923;Laerm;33688;44.354;9.228;2023-07-08T10:55:41;35.01;5.00;38.95;;
47923;Laerm;33688;44.354;9.228;2023-07-08T11:06:48;107.85;5.00;112.83;;
47923;Laerm;33688;44.354;9.228;2023-07-08T11:09:24;107.82;5.00;112.76;;
47923;Laerm;33688;44.354;9.228;2023-07-08T11:17:49;103.77;5.00;112.54;;
47923;Laerm;33688;44.354;9.228;2023-07-08T11:26:23;102.38;5.00;111.32;;
47923;Laerm;33688;44.354;9.228;2023-07-08T11:28:54;95.25;23.90;107.21;;
47923;Laerm;33688;44.354;9.228;2023-07-08T11:31:40;97.10;5.00;111.95;;
47923;Laerm;33688;44.354;9.228;2023-07-08T11:34:08;101.91;5.00;110.83;;
47923;Laerm;33688;44.354;9.228;2023-07-08T11:36:37;102.04;28.67;107.05;;
47923;Laerm;33688;44.354;9.228;2023-07-08T11:39:58;101.82;31.68;106.82;;
47923;Laerm;33688;44.354;9.228;2023-07-08T11:44:58;98.09;78.99;106.16;;
47923;Laerm;33688;44.354;9.228;2023-07-08T11:47:40;98.21;59.72;106.18;;
47923;Laerm;33688;44.354;9.228;2023-07-08T11:50:35;100.66;78.92;106.47;;
47923;Laerm;33688;44.354;9.228;2023-07-08T11:53:09;79.26;5.00;104.60;;
47923;Laerm;33688;44.354;9.228;2023-07-08T11:55:47;34.96;5.00;38.37;;
47923;Laerm;33688;44.354;9.228;2023-07-08T11:58:31;35.00;5.00;38.95;;
47923;Laerm;33688;44.354;9.228;2023-07-08T12:01:32;35.00;5.00;38.52;;
47923;Laerm;33688;44.354;9.228;2023-07-08T12:04:31;34.99;5.00;38.67;;
47923;Laerm;33688;44.354;9.228;2023-07-08T12:07:20;35.00;5.00;38.52;;
47923;Laerm;33688;44.354;9.228;2023-07-08T12:10:09;34.99;23.90;38.52;;
47923;Laerm;33688;44.354;9.228;2023-07-08T12:12:40;34.97;5.00;38.81;;
47923;Laerm;33688;44.354;9.228;2023-07-08T12:15:30;34.94;23.90;38.67;;
47923;Laerm;33688;44.354;9.228;2023-07-08T12:18:03;35.00;5.00;38.52;;
47923;Laerm;33688;44.354;9.228;2023-07-08T12:20:56;34.99;23.90;39.08;;
47923;Laerm;33688;44.354;9.228;2023-07-08T12:23:25;34.98;23.90;38.67;;
47923;Laerm;33688;44.354;9.228;2023-07-08T12:25:55;34.99;5.00;39.21;;
47923;Laerm;33688;44.354;9.228;2023-07-08T12:28:24;34.96;5.00;38.95;;
47923;Laerm;33688;44.354;9.228;2023-07-08T12:30:51;35.00;5.00;38.52;;
47923;Laerm;33688;44.354;9.228;2023-07-08T12:33:33;34.98;23.90;38.81;;
47923;Laerm;33688;44.354;9.228;2023-07-08T12:36:03;35.00;5.00;38.95;;
47923;Laerm;33688;44.354;9.228;2023-07-08T12:38:41;35.04;5.00;39.21;;
47923;Laerm;33688;44.354;9.228;2023-07-08T12:41:30;35.01;23.90;38.67;;
47923;Laerm;33688;44.354;9.228;2023-07-08T12:43:57;35.00;23.90;38.81;;
47923;Laerm;33688;44.354;9.228;2023-07-08T12:46:25;34.99;5.00;38.95;;
47923;Laerm;33688;44.354;9.228;2023-07-08T12:48:51;50.19;23.55;86.21;;
47923;Laerm;33688;44.354;9.228;2023-07-08T12:51:20;35.04;5.00;39.08;;
47923;Laerm;33688;44.354;9.228;2023-07-08T12:53:47;34.99;5.00;38.81;;
47923;Laerm;33688;44.354;9.228;2023-07-08T12:56:14;35.01;23.90;39.21;;
47923;Laerm;33688;44.354;9.228;2023-07-08T12:58:58;35.02;5.00;39.08;;
47923;Laerm;33688;44.354;9.228;2023-07-08T13:01:30;35.04;5.00;38.67;;
47923;Laerm;33688;44.354;9.228;2023-07-08T13:04:06;35.03;23.55;38.67;;
47923;Laerm;33688;44.354;9.228;2023-07-08T13:06:35;35.00;23.90;39.08;;
47923;Laerm;33688;44.354;9.228;2023-07-08T13:11:57;35.04;23.90;38.95;;
47923;Laerm;33688;44.354;9.228;2023-07-08T13:14:24;35.01;5.00;38.52;;
47923;Laerm;33688;44.354;9.228;2023-07-08T13:16:52;35.04;23.90;39.08;;
47923;Laerm;33688;44.354;9.228;2023-07-08T13:19:18;34.98;23.90;38.52;;
47923;Laerm;33688;44.354;9.228;2023-07-08T13:21:44;35.00;5.00;38.95;;
47923;Laerm;33688;44.354;9.228;2023-07-08T13:24:11;35.04;5.00;38.67;;
47923;Laerm;33688;44.354;9.228;2023-07-08T13:26:39;35.02;5.00;39.08;;
47923;Laerm;33688;44.354;9.228;2023-07-08T13:29:14;34.99;23.90;38.52;;
47923;Laerm;33688;44.354;9.228;2023-07-08T13:31:49;35.07;5.00;38.67;;
47923;Laerm;33688;44.354;9.228;2023-07-08T13:34:19;50.04;23.90;86.21;;
47923;Laerm;33688;44.354;9.228;2023-07-08T13:36:49;35.02;23.90;38.67;;
47923;Laerm;33688;44.354;9.228;2023-07-08T13:39:31;34.97;23.55;38.52;;
47923;Laerm;33688;44.354;9.228;2023-07-08T13:41:59;34.99;5.00;39.08;;
47923;Laerm;33688;44.354;9.228;2023-07-08T13:44:26;35.05;5.00;38.95;;
47923;Laerm;33688;44.354;9.228;2023-07-08T13:46:57;35.02;23.90;38.95;;
47923;Laerm;33688;44.354;9.228;2023-07-08T13:49:38;35.02;23.55;38.95;;
47923;Laerm;33688;44.354;9.228;2023-07-08T13:52:19;35.01;5.00;38.95;;
47923;Laerm;33688;44.354;9.228;2023-07-08T13:55:06;35.02;5.00;39.34;;
47923;Laerm;33688;44.354;9.228;2023-07-08T13:57:38;35.02;23.90;38.95;;
47923;Laerm;33688;44.354;9.228;2023-07-08T14:00:06;35.02;5.00;38.81;;
47923;Laerm;33688;44.354;9.228;2023-07-08T14:02:39;35.00;5.00;38.95;;
47923;Laerm;33688;44.354;9.228;2023-07-08T14:05:13;35.00;23.90;38.67;;
47923;Laerm;33688;44.354;9.228;2023-07-08T14:07:46;49.93;5.00;86.22;;
47923;Laerm;33688;44.354;9.228;2023-07-08T14:10:13;35.01;23.90;38.52;;
47923;Laerm;33688;44.354;9.228;2023-07-08T14:12:39;34.97;5.00;38.95;;
47923;Laerm;33688;44.354;9.228;2023-07-08T14:15:07;35.02;23.90;38.67;;
47923;Laerm;33688;44.354;9.228;2023-07-08T14:17:34;34.97;5.00;38.67;;
47923;Laerm;33688;44.354;9.228;2023-07-08T14:20:00;35.04;5.00;38.81;;
47923;Laerm;33688;44.354;9.228;2023-07-08T14:22:29;50.34;5.00;86.21;;
47923;Laerm;33688;44.354;9.228;2023-07-08T14:24:58;35.03;23.55;38.67;;
47923;Laerm;33688;44.354;9.228;2023-07-08T14:27:27;45.45;5.00;80.19;;
47923;Laerm;33688;44.354;9.228;2023-07-08T14:29:55;35.02;23.90;38.67;;
47923;Laerm;33688;44.354;9.228;2023-07-08T14:32:27;34.99;5.00;38.37;;
47923;Laerm;33688;44.354;9.228;2023-07-08T14:35:22;35.04;23.90;38.52;;
47923;Laerm;33688;44.354;9.228;2023-07-08T14:37:48;35.05;5.00;38.52;;
47923;Laerm;33688;44.354;9.228;2023-07-08T14:40:34;35.00;5.00;38.67;;
47923;Laerm;33688;44.354;9.228;2023-07-08T14:43:18;35.03;5.00;38.67;;
47923;Laerm;33688;44.354;9.228;2023-07-08T14:45:50;35.01;23.90;39.23;;
47923;Laerm;33688;44.354;9.228;2023-07-08T14:48:17;35.04;5.00;38.52;;
47923;Laerm;33688;44.354;9.228;2023-07-08T14:50:44;35.02;5.00;39.08;;
47923;Laerm;33688;44.354;9.228;2023-07-08T14:53:10;34.98;5.00;38.95;;
47923;Laerm;33688;44.354;9.228;2023-07-08T14:55:36;35.06;5.00;38.95;;
47923;Laerm;33688;44.354;9.228;2023-07-08T14:58:03;35.01;5.00;38.52;;
47923;Laerm;33688;44.354;9.228;2023-07-08T15:00:30;35.01;5.00;38.67;;
47923;Laerm;33688;44.354;9.228;2023-07-08T15:02:56;35.00;23.90;39.34;;
47923;Laerm;33688;44.354;9.228;2023-07-08T15:05:24;35.03;5.00;38.95;;
47923;Laerm;33688;44.354;9.228;2023-07-08T15:07:56;35.04;23.90;39.34;;
47923;Laerm;33688;44.354;9.228;2023-07-08T15:10:29;35.02;5.00;39.08;;
47923;Laerm;33688;44.354;9.228;2023-07-08T15:12:57;35.03;23.90;38.95;;
47923;Laerm;33688;44.354;9.228;2023-07-08T15:15:33;35.02;5.00;38.95;;
47923;Laerm;33688;44.354;9.228;2023-07-08T15:18:00;35.00;23.90;38.67;;
47923;Laerm;33688;44.354;9.228;2023-07-08T15:20:32;34.96;23.90;39.21;;
47923;Laerm;33688;44.354;9.228;2023-07-08T15:22:58;35.03;23.90;39.34;;
47923;Laerm;33688;44.354;9.228;2023-07-08T15:25:24;35.03;5.00;38.52;;
47923;Laerm;33688;44.354;9.228;2023-07-08T15:27:54;35.01;23.90;38.81;;
47923;Laerm;33688;44.354;9.228;2023-07-08T15:30:26;35.03;23.55;39.08;;
47923;Laerm;33688;44.354;9.228;2023-07-08T15:32:53;35.02;5.00;38.67;;
47923;Laerm;33688;44.354;9.228;2023-07-08T15:35:25;35.04;23.90;39.34;;
47923;Laerm;33688;44.354;9.228;2023-07-08T15:37:52;35.05;23.90;38.99;;